createdAt,value
2018-11-29T00:00:29.423Z,14.27
2018-11-29T00:02:58.019Z,13.83
2018-11-29T00:05:27.173Z,15.70
2018-11-29T00:07:56.007Z,16.50
2018-11-29T00:10:25.909Z,13.87
2018-11-29T00:12:54.465Z,16.20
2018-11-29T00:15:23.352Z,11.43
2018-11-29T00:17:51.948Z,15.63
2018-11-29T00:20:21.199Z,17.10
2018-11-29T00:22:50.384Z,14.37
2018-11-29T00:25:19.728Z,14.00
2018-11-29T00:27:48.805Z,15.60
2018-11-29T00:30:20.033Z,16.07
2018-11-29T00:32:48.980Z,16.17
2018-11-29T00:35:17.947Z,17.03
2018-11-29T00:37:46.523Z,14.70
2018-11-29T00:40:20.109Z,16.53
2018-11-29T00:42:49.425Z,16.27
2018-11-29T00:45:19.742Z,15.27
2018-11-29T00:47:49.724Z,14.80
2018-11-29T00:50:18.979Z,13.97
2018-11-29T00:52:48.530Z,15.50
2018-11-29T00:55:19.845Z,17.40
2018-11-29T00:57:48.687Z,14.87
2018-11-29T01:00:18.468Z,14.57
2018-11-29T01:02:47.005Z,16.67
2018-11-29T01:05:15.745Z,13.43
2018-11-29T01:07:44.344Z,15.27
2018-11-29T01:10:16.905Z,15.83
2018-11-29T01:12:46.080Z,15.80
2018-11-29T01:15:15.688Z,16.43
2018-11-29T01:17:45.418Z,17.93
2018-11-29T01:20:15.603Z,16.37
2018-11-29T01:22:44.253Z,16.30
2018-11-29T01:25:13.667Z,16.23
2018-11-29T01:27:43.120Z,16.83
2018-11-29T01:30:14.565Z,17.30
2018-11-29T01:32:43.362Z,16.23
2018-11-29T01:35:12.950Z,16.40
2018-11-29T01:37:41.710Z,18.23
2018-11-29T01:40:16.061Z,13.03
2018-11-29T01:42:45.703Z,9.73
2018-11-29T01:45:14.669Z,14.43
2018-11-29T01:47:43.125Z,15.27
2018-11-29T01:50:11.878Z,14.30
2018-11-29T01:52:40.726Z,11.43
2018-11-29T01:55:09.661Z,12.37
2018-11-29T01:57:38.328Z,14.50
2018-11-29T02:00:14.075Z,15.70
2018-11-29T02:02:42.734Z,15.30
2018-11-29T02:05:12.079Z,14.37
2018-11-29T02:07:40.702Z,15.37
2018-11-29T02:10:15.919Z,13.20
2018-11-29T02:12:44.496Z,16.13
2018-11-29T02:15:13.066Z,15.30
2018-11-29T02:17:41.751Z,18.27
2018-11-29T02:20:13.549Z,18.30
2018-11-29T02:22:42.234Z,17.90
2018-11-29T02:25:10.937Z,16.50
2018-11-29T02:27:39.648Z,18.40
2018-11-29T02:30:13.989Z,18.03
2018-11-29T02:32:42.638Z,19.67
2018-11-29T02:35:11.194Z,19.87
2018-11-29T02:37:39.953Z,19.87
2018-11-29T02:40:11.819Z,19.77
2018-11-29T02:42:41.193Z,18.83
2018-11-29T02:45:12.808Z,19.00
2018-11-29T02:47:41.559Z,17.77
2018-11-29T02:50:11.324Z,17.13
2018-11-29T02:52:40.106Z,16.37
2018-11-29T02:55:09.931Z,16.63
2018-11-29T02:57:38.609Z,17.57
2018-11-29T03:00:12.104Z,18.33
2018-11-29T03:02:40.664Z,17.43
2018-11-29T03:05:09.274Z,15.70
2018-11-29T03:07:37.989Z,16.73
2018-11-29T03:10:11.526Z,17.17
2018-11-29T03:12:40.387Z,16.93
2018-11-29T03:15:13.277Z,16.10
2018-11-29T03:17:41.994Z,14.97
2018-11-29T03:20:12.333Z,13.53
2018-11-29T03:22:41.115Z,14.40
2018-11-29T03:25:13.622Z,14.33
2018-11-29T03:27:42.336Z,12.53
2018-11-29T03:30:12.020Z,11.00
2018-11-29T03:32:40.669Z,14.53
2018-11-29T03:35:10.601Z,12.83
2018-11-29T03:37:39.137Z,13.53
2018-11-29T03:40:11.474Z,12.43
2018-11-29T03:42:40.655Z,10.93
2018-11-29T03:45:11.433Z,11.77
2018-11-29T03:47:39.831Z,10.73
2018-11-29T03:50:11.917Z,12.63
2018-11-29T03:52:40.800Z,14.17
2018-11-29T03:55:10.439Z,10.97
2018-11-29T03:57:39.686Z,11.47
2018-11-29T04:00:10.609Z,12.13
2018-11-29T04:02:39.123Z,13.17
2018-11-29T04:05:07.733Z,12.17
2018-11-29T04:07:36.403Z,12.73
2018-11-29T04:10:06.083Z,12.97
2018-11-29T04:12:34.614Z,14.07
2018-11-29T04:15:03.328Z,10.70
2018-11-29T04:17:32.127Z,12.63
2018-11-29T04:20:00.733Z,13.37
2018-11-29T04:22:29.203Z,11.77
2018-11-29T04:24:57.918Z,13.50
2018-11-29T04:27:26.429Z,13.17
2018-11-29T04:29:55.155Z,13.23
2018-11-29T04:32:23.736Z,13.10
2018-11-29T04:34:52.309Z,10.83
2018-11-29T04:37:21.413Z,12.07
2018-11-29T04:39:50.323Z,14.03
2018-11-29T04:42:18.568Z,13.00
2018-11-29T04:44:47.460Z,11.10
2018-11-29T04:47:16.187Z,10.67
2018-11-29T04:49:44.763Z,12.30
2018-11-29T04:52:13.440Z,12.63
2018-11-29T04:54:42.129Z,11.00
2018-11-29T04:57:10.856Z,11.53
2018-11-29T04:59:39.565Z,11.10
2018-11-29T05:02:08.274Z,11.00
2018-11-29T05:04:36.615Z,11.17
2018-11-29T05:07:05.345Z,14.00
2018-11-29T05:09:34.072Z,11.50
2018-11-29T05:12:02.615Z,13.87
2018-11-29T05:14:31.205Z,12.57
2018-11-29T05:16:59.981Z,13.43
2018-11-29T05:19:28.598Z,13.77
2018-11-29T05:21:57.396Z,14.67
2018-11-29T05:24:25.962Z,14.20
2018-11-29T05:26:54.783Z,12.40
2018-11-29T05:29:23.803Z,14.20
2018-11-29T05:31:52.253Z,11.60
2018-11-29T05:34:20.848Z,11.27
2018-11-29T05:36:49.735Z,14.63
2018-11-29T05:39:18.250Z,11.40
2018-11-29T05:41:46.730Z,12.30
2018-11-29T05:44:15.429Z,11.00
2018-11-29T05:46:44.303Z,13.60
2018-11-29T05:49:13.193Z,10.37
2018-11-29T05:51:41.976Z,12.43
2018-11-29T05:54:10.505Z,13.37
2018-11-29T05:56:39.251Z,13.50
2018-11-29T05:59:08.228Z,12.40
2018-11-29T06:01:39.018Z,11.63
2018-11-29T06:04:07.608Z,13.33
2018-11-29T06:06:36.668Z,12.70
2018-11-29T06:09:10.493Z,12.80
2018-11-29T06:11:39.693Z,12.67
2018-11-29T06:14:08.731Z,12.73
2018-11-29T06:16:38.445Z,11.67
2018-11-29T06:19:08.295Z,12.27
2018-11-29T06:21:36.705Z,12.93
2018-11-29T06:24:05.450Z,12.33
2018-11-29T06:26:34.250Z,13.03
2018-11-29T06:29:02.846Z,13.50
2018-11-29T06:31:37.151Z,13.50
2018-11-29T06:34:06.031Z,14.47
2018-11-29T06:36:34.621Z,12.07
2018-11-29T06:39:03.533Z,13.30
2018-11-29T06:41:32.104Z,13.30
2018-11-29T06:44:01.079Z,13.03
2018-11-29T06:46:30.416Z,13.13
2018-11-29T06:49:14.134Z,14.00
2018-11-29T06:51:45.611Z,12.37
2018-11-29T06:54:14.061Z,12.57
2018-11-29T06:56:43.550Z,13.10
2018-11-29T06:59:12.205Z,13.20
2018-11-29T07:01:41.049Z,13.77
2018-11-29T07:04:20.445Z,13.83
2018-11-29T07:06:49.090Z,13.10
2018-11-29T07:09:17.538Z,13.20
2018-11-29T07:11:46.279Z,12.33
2018-11-29T07:14:15.108Z,13.20
2018-11-29T07:16:44.349Z,12.30
2018-11-29T07:19:15.132Z,12.37
2018-11-29T07:21:51.354Z,13.13
2018-11-29T07:24:19.879Z,13.57
2018-11-29T07:26:48.583Z,13.93
2018-11-29T07:29:17.459Z,12.93
2018-11-29T07:31:46.009Z,13.57
2018-11-29T07:34:14.579Z,14.23
2018-11-29T07:36:43.544Z,13.67
2018-11-29T07:39:12.489Z,12.23
2018-11-29T07:41:41.192Z,13.47
2018-11-29T07:44:11.604Z,12.40
2018-11-29T07:46:40.038Z,13.37
2018-11-29T07:49:08.863Z,14.40
2018-11-29T07:51:37.384Z,13.73
2018-11-29T07:54:06.323Z,12.93
2018-11-29T07:56:34.785Z,13.50
2018-11-29T07:59:03.538Z,13.93
2018-11-29T08:01:32.519Z,13.23
2018-11-29T08:04:01.291Z,13.97
2018-11-29T08:06:29.628Z,14.33
2018-11-29T08:08:58.398Z,12.93
2018-11-29T08:11:28.000Z,13.80
2018-11-29T08:13:56.420Z,14.73
2018-11-29T08:16:24.866Z,14.47
2018-11-29T08:18:53.396Z,14.20
2018-11-29T08:21:21.850Z,13.87
2018-11-29T08:23:50.420Z,13.30
2018-11-29T08:26:19.118Z,12.13
2018-11-29T08:28:47.578Z,13.57
2018-11-29T08:31:17.126Z,13.57
2018-11-29T08:33:45.770Z,13.17
2018-11-29T08:36:14.516Z,13.10
2018-11-29T08:38:43.040Z,13.27
2018-11-29T08:41:11.589Z,12.27
2018-11-29T08:43:40.305Z,11.57
2018-11-29T08:46:08.770Z,12.50
2018-11-29T08:48:37.245Z,13.53
2018-11-29T08:51:05.876Z,11.53
2018-11-29T08:53:34.599Z,12.30
2018-11-29T08:56:03.304Z,11.90
2018-11-29T08:58:32.188Z,12.50
2018-11-29T09:01:00.883Z,12.00
2018-11-29T09:03:29.458Z,11.80
2018-11-29T09:05:58.160Z,11.93
2018-11-29T09:08:26.715Z,12.67
2018-11-29T09:10:55.418Z,13.23
2018-11-29T09:13:24.088Z,11.27
2018-11-29T09:15:52.573Z,12.63
2018-11-29T09:18:21.144Z,10.27
2018-11-29T09:20:49.860Z,11.03
2018-11-29T09:23:18.448Z,12.57
2018-11-29T09:25:47.250Z,12.50
2018-11-29T09:28:15.705Z,12.53
2018-11-29T09:30:44.259Z,12.73
2018-11-29T09:33:12.815Z,12.63
2018-11-29T09:35:41.451Z,13.30
2018-11-29T09:38:10.968Z,11.87
2018-11-29T09:40:39.724Z,12.33
2018-11-29T09:43:08.276Z,10.93
2018-11-29T09:45:36.979Z,11.40
2018-11-29T09:48:05.469Z,12.03
2018-11-29T09:50:34.971Z,12.43
2018-11-29T09:53:03.429Z,11.87
2018-11-29T09:55:32.260Z,11.77
2018-11-29T09:58:00.991Z,11.30
2018-11-29T10:00:30.702Z,11.30
2018-11-29T10:03:15.201Z,12.27
2018-11-29T10:05:44.966Z,10.73
2018-11-29T10:08:14.879Z,10.67
2018-11-29T10:10:43.558Z,11.97
2018-11-29T10:13:12.167Z,11.07
2018-11-29T10:15:41.857Z,11.27
2018-11-29T10:18:11.219Z,11.27
2018-11-29T10:20:40.339Z,8.80
2018-11-29T10:23:09.507Z,10.97
2018-11-29T10:25:39.777Z,11.47
2018-11-29T10:28:14.082Z,10.40
2018-11-29T10:30:53.629Z,10.53
2018-11-29T10:33:22.282Z,9.73
2018-11-29T10:35:51.069Z,10.73
2018-11-29T10:38:19.666Z,11.03
2018-11-29T10:40:49.885Z,10.17
2018-11-29T10:43:18.453Z,9.63
2018-11-29T10:45:47.100Z,10.83
2018-11-29T10:48:20.374Z,8.93
2018-11-29T10:50:49.089Z,11.33
2018-11-29T10:53:17.869Z,10.73
2018-11-29T10:55:46.469Z,10.83
2018-11-29T10:58:15.390Z,8.43
2018-11-29T11:00:49.470Z,7.03
2018-11-29T11:03:19.890Z,8.93
2018-11-29T11:05:49.698Z,9.53
2018-11-29T11:08:18.591Z,10.63
2018-11-29T11:10:47.418Z,10.77
2018-11-29T11:13:16.250Z,9.80
2018-11-29T11:15:45.470Z,10.67
2018-11-29T11:18:15.230Z,10.93
2018-11-29T11:20:44.370Z,13.50
2018-11-29T11:23:13.319Z,10.40
2018-11-29T11:25:43.850Z,11.13
2018-11-29T11:28:12.330Z,10.17
2018-11-29T11:30:44.057Z,11.63
2018-11-29T11:33:12.989Z,11.37
2018-11-29T11:35:41.532Z,10.13
2018-11-29T11:38:10.683Z,11.73
2018-11-29T11:40:39.416Z,8.43
2018-11-29T11:43:08.364Z,9.57
2018-11-29T11:45:37.697Z,10.67
2018-11-29T11:48:07.418Z,11.97
2018-11-29T11:50:36.757Z,12.53
2018-11-29T11:53:06.757Z,7.43
2018-11-29T11:55:36.017Z,11.80
2018-11-29T11:58:05.877Z,10.57
2018-11-29T12:00:34.397Z,13.37
2018-11-29T12:03:05.281Z,11.20
2018-11-29T12:05:33.818Z,11.27
2018-11-29T12:08:02.417Z,10.83
2018-11-29T12:10:31.045Z,11.23
2018-11-29T12:12:59.878Z,12.37
2018-11-29T12:15:29.797Z,11.47
2018-11-29T12:17:58.677Z,11.70
2018-11-29T12:20:28.320Z,10.80
2018-11-29T12:22:56.962Z,10.20
2018-11-29T12:25:25.997Z,11.27
2018-11-29T12:27:54.658Z,10.40
2018-11-29T12:30:32.558Z,8.53
2018-11-29T12:33:03.457Z,9.37
2018-11-29T12:35:32.417Z,9.67
2018-11-29T12:38:01.086Z,10.13
2018-11-29T12:40:29.822Z,7.77
2018-11-29T12:42:58.637Z,10.53
2018-11-29T12:45:27.497Z,8.43
2018-11-29T12:47:56.996Z,8.23
2018-11-29T12:50:27.217Z,8.20
2018-11-29T12:52:56.217Z,9.07
2018-11-29T12:55:26.661Z,10.23
2018-11-29T12:58:04.861Z,6.57
2018-11-29T13:00:25.681Z,10.40
2018-11-29T13:03:00.188Z,9.90
2018-11-29T13:05:29.422Z,7.30
2018-11-29T13:07:58.320Z,9.07
2018-11-29T13:10:27.860Z,7.83
2018-11-29T13:12:56.721Z,9.13
2018-11-29T13:15:27.792Z,8.53
2018-11-29T13:17:57.341Z,8.60
2018-11-29T13:20:26.161Z,7.30
2018-11-29T13:22:55.380Z,7.80
2018-11-29T13:25:25.123Z,9.53
2018-11-29T13:27:53.800Z,7.17
2018-11-29T13:30:22.619Z,9.90
2018-11-29T13:32:55.902Z,8.90
2018-11-29T13:35:33.980Z,8.33
2018-11-29T13:38:10.260Z,8.80
2018-11-29T13:40:38.625Z,8.67
2018-11-29T13:43:06.839Z,9.63
2018-11-29T13:45:36.380Z,6.87
2018-11-29T13:48:05.408Z,8.73
2018-11-29T13:50:33.682Z,9.07
2018-11-29T13:53:02.090Z,8.50
2018-11-29T13:55:30.568Z,9.73
2018-11-29T13:57:59.440Z,7.80
2018-11-29T14:00:27.779Z,9.03
2018-11-29T14:02:59.181Z,7.27
2018-11-29T14:05:27.509Z,8.37
2018-11-29T14:07:57.260Z,10.77
2018-11-29T14:10:25.980Z,10.10
2018-11-29T14:12:55.360Z,8.33
2018-11-29T14:15:25.240Z,11.27
2018-11-29T14:17:53.619Z,9.93
2018-11-29T14:20:22.102Z,7.80
2018-11-29T14:22:50.560Z,10.13
2018-11-29T14:25:21.040Z,7.80
2018-11-29T14:27:53.559Z,9.70
2018-11-29T14:30:23.921Z,9.97
2018-11-29T14:32:53.428Z,10.20
2018-11-29T14:35:22.460Z,8.57
2018-11-29T14:37:50.921Z,9.33
2018-11-29T14:40:24.840Z,10.10
2018-11-29T14:42:53.139Z,9.70
2018-11-29T14:45:25.667Z,9.90
2018-11-29T14:47:54.159Z,9.00
2018-11-29T14:50:29.499Z,8.70
2018-11-29T14:52:58.667Z,7.63
2018-11-29T14:55:26.920Z,9.60
2018-11-29T14:57:55.739Z,9.10
2018-11-29T15:00:23.980Z,9.40
2018-11-29T15:02:52.440Z,9.27
2018-11-29T15:05:24.300Z,8.10
2018-11-29T15:08:00.080Z,10.87
2018-11-29T15:10:28.639Z,9.67
2018-11-29T15:13:00.928Z,8.80
2018-11-29T15:15:29.683Z,11.07
2018-11-29T15:17:58.541Z,7.53
2018-11-29T15:20:32.060Z,10.23
2018-11-29T15:23:00.308Z,9.37
2018-11-29T15:25:28.619Z,9.27
2018-11-29T15:27:56.919Z,9.73
2018-11-29T15:30:25.250Z,10.60
2018-11-29T15:32:53.548Z,9.57
2018-11-29T15:35:22.139Z,8.83
2018-11-29T15:37:50.408Z,9.40
2018-11-29T15:40:19.240Z,8.17
2018-11-29T15:42:47.580Z,7.73
2018-11-29T15:45:23.602Z,8.73
2018-11-29T15:47:51.885Z,8.60
2018-11-29T15:50:20.223Z,8.23
2018-11-29T15:52:48.450Z,8.00
2018-11-29T15:55:21.139Z,7.67
2018-11-29T15:57:50.387Z,7.13
2018-11-29T16:00:23.860Z,7.47
2018-11-29T16:02:52.948Z,9.07
2018-11-29T16:05:21.202Z,7.60
2018-11-29T16:07:49.400Z,8.27
2018-11-29T16:10:19.720Z,8.83
2018-11-29T16:12:47.931Z,8.47
2018-11-29T16:15:17.519Z,8.57
2018-11-29T16:17:47.520Z,7.37
2018-11-29T16:20:21.607Z,9.17
2018-11-29T16:22:50.008Z,8.33
2018-11-29T16:25:18.458Z,8.03
2018-11-29T16:27:46.959Z,8.53
2018-11-29T16:30:35.634Z,7.80
2018-11-29T16:33:09.314Z,9.97
2018-11-29T16:35:37.914Z,7.83
2018-11-29T16:38:07.321Z,9.23
2018-11-29T16:40:37.100Z,8.47
2018-11-29T16:43:08.414Z,10.53
2018-11-29T16:45:37.477Z,9.83
2018-11-29T16:48:06.242Z,11.13
2018-11-29T16:50:34.820Z,11.43
2018-11-29T16:53:03.339Z,11.37
2018-11-29T16:55:31.699Z,11.20
2018-11-29T16:58:02.419Z,12.07
2018-11-29T17:00:31.039Z,10.43
2018-11-29T17:03:01.641Z,9.70
2018-11-29T17:05:30.165Z,9.20
2018-11-29T17:07:58.520Z,8.20
2018-11-29T17:10:27.184Z,8.70
2018-11-29T17:12:59.127Z,7.10
2018-11-29T17:15:27.744Z,6.80
2018-11-29T17:17:55.959Z,7.90
2018-11-29T17:20:28.380Z,6.47
2018-11-29T17:22:56.884Z,9.43
2018-11-29T17:25:25.539Z,9.43
2018-11-29T17:27:54.148Z,8.73
2018-11-29T17:30:25.218Z,7.43
2018-11-29T17:32:57.080Z,9.23
2018-11-29T17:35:25.408Z,7.53
2018-11-29T17:37:55.939Z,7.43
2018-11-29T17:40:24.259Z,9.73
2018-11-29T17:42:53.823Z,8.07
2018-11-29T17:45:26.500Z,7.53
2018-11-29T17:47:57.080Z,9.30
2018-11-29T17:50:37.043Z,7.70
2018-11-29T17:53:07.406Z,8.13
2018-11-29T17:55:36.619Z,7.53
2018-11-29T17:58:09.539Z,6.73
2018-11-29T18:00:37.980Z,8.80
2018-11-29T18:03:08.119Z,8.53
2018-11-29T18:05:36.819Z,6.73
2018-11-29T18:08:05.740Z,6.37
2018-11-29T18:10:36.659Z,8.33
2018-11-29T18:13:12.419Z,6.83
2018-11-29T18:15:40.959Z,8.30
2018-11-29T18:18:09.559Z,6.27
2018-11-29T18:20:38.034Z,9.20
2018-11-29T18:23:07.801Z,8.47
2018-11-29T18:25:36.967Z,8.70
2018-11-29T18:28:06.279Z,7.97
2018-11-29T18:30:34.860Z,6.20
2018-11-29T18:33:03.919Z,6.53
2018-11-29T18:35:32.419Z,5.97
2018-11-29T18:38:00.760Z,8.73
2018-11-29T18:40:29.379Z,6.90
2018-11-29T18:43:00.119Z,8.23
2018-11-29T18:45:28.660Z,6.87
2018-11-29T18:47:57.460Z,8.33
2018-11-29T18:50:26.758Z,6.63
2018-11-29T18:52:55.533Z,9.03
2018-11-29T18:55:25.534Z,7.63
2018-11-29T18:57:55.773Z,8.10
2018-11-29T19:00:28.453Z,5.97
2018-11-29T19:02:57.312Z,7.23
2018-11-29T19:05:26.153Z,6.83
2018-11-29T19:07:54.941Z,8.00
2018-11-29T19:10:23.853Z,6.97
2018-11-29T19:13:01.353Z,7.07
2018-11-29T19:15:30.200Z,6.27
2018-11-29T19:17:58.933Z,7.17
2018-11-29T19:20:28.934Z,5.27
2018-11-29T19:22:57.512Z,6.43
2018-11-29T19:25:26.412Z,6.33
2018-11-29T19:27:54.973Z,6.37
2018-11-29T19:30:26.963Z,5.47
2018-11-29T19:33:00.613Z,6.27
2018-11-29T19:35:29.533Z,7.67
2018-11-29T19:37:59.392Z,6.57
2018-11-29T19:40:28.273Z,7.80
2018-11-29T19:42:57.133Z,6.30
2018-11-29T19:45:25.833Z,6.90
2018-11-29T19:47:55.233Z,6.13
2018-11-29T19:50:24.136Z,7.43
2018-11-29T19:52:54.398Z,3.90
2018-11-29T19:55:28.263Z,7.40
2018-11-29T19:57:57.269Z,6.53
2018-11-29T20:00:25.973Z,5.97
2018-11-29T20:02:55.720Z,5.90
2018-11-29T20:05:24.218Z,6.17
2018-11-29T20:07:52.783Z,7.00
2018-11-29T20:10:21.769Z,6.57
2018-11-29T20:12:56.856Z,5.43
2018-11-29T20:15:25.683Z,6.73
2018-11-29T20:17:54.104Z,7.53
2018-11-29T20:20:22.518Z,6.33
2018-11-29T20:22:50.994Z,5.40
2018-11-29T20:25:21.788Z,5.47
2018-11-29T20:27:50.113Z,7.37
2018-11-29T20:30:20.643Z,7.63
2018-11-29T20:32:50.803Z,7.37
2018-11-29T20:35:19.348Z,6.80
2018-11-29T20:37:49.470Z,6.87
2018-11-29T20:40:20.022Z,8.20
2018-11-29T20:42:50.078Z,6.03
2018-11-29T20:45:25.498Z,8.83
2018-11-29T20:47:54.028Z,5.87
2018-11-29T20:50:24.388Z,6.10
2018-11-29T20:52:54.393Z,7.30
2018-11-29T20:55:25.268Z,8.20
2018-11-29T20:57:53.498Z,8.77
2018-11-29T21:00:21.931Z,7.50
2018-11-29T21:02:50.076Z,7.53
2018-11-29T21:05:21.533Z,6.57
2018-11-29T21:07:51.505Z,7.07
2018-11-29T21:10:24.613Z,7.97
2018-11-29T21:12:52.831Z,7.27
2018-11-29T21:15:21.570Z,8.63
2018-11-29T21:17:50.081Z,7.63
2018-11-29T21:20:20.620Z,8.03
2018-11-29T21:22:54.236Z,7.27
2018-11-29T21:25:24.186Z,6.67
2018-11-29T21:27:52.930Z,5.83
2018-11-29T21:30:21.140Z,7.43
2018-11-29T21:32:50.343Z,6.40
2018-11-29T21:35:19.908Z,6.53
2018-11-29T21:37:48.288Z,7.13
2018-11-29T21:40:21.687Z,6.20
2018-11-29T21:42:57.879Z,7.27
2018-11-29T21:45:27.398Z,7.47
2018-11-29T21:47:55.800Z,7.60
2018-11-29T21:50:24.069Z,7.57
2018-11-29T21:52:52.366Z,8.30
2018-11-29T21:55:20.605Z,7.90
2018-11-29T21:57:48.955Z,7.67
2018-11-29T22:00:20.166Z,7.43
2018-11-29T22:02:54.550Z,8.10
2018-11-29T22:05:23.175Z,8.50
2018-11-29T22:07:51.813Z,7.43
2018-11-29T22:10:20.462Z,4.93
2018-11-29T22:12:50.402Z,6.83
2018-11-29T22:15:19.222Z,5.90
2018-11-29T22:18:20.252Z,7.27
2018-11-29T22:20:50.510Z,8.23
2018-11-29T22:23:19.582Z,6.20
2018-11-29T22:25:48.027Z,7.73
2018-11-29T22:28:16.392Z,7.97
2018-11-29T22:30:44.931Z,6.83
2018-11-29T22:33:13.433Z,7.40
2018-11-29T22:35:41.730Z,5.23
2018-11-29T22:38:10.140Z,6.60
2018-11-29T22:40:38.291Z,8.07
2018-11-29T22:43:08.593Z,6.60
2018-11-29T22:45:36.630Z,6.60
2018-11-29T22:48:04.742Z,5.93
2018-11-29T22:50:33.510Z,8.33
2018-11-29T22:53:02.186Z,7.83
2018-11-29T22:55:30.377Z,6.23
2018-11-29T22:57:59.236Z,6.80
2018-11-29T23:00:58.980Z,6.33
2018-11-29T23:03:26.992Z,8.47
2018-11-29T23:05:55.548Z,8.10
2018-11-29T23:08:23.522Z,6.80
2018-11-29T23:10:51.567Z,7.00
2018-11-29T23:13:19.742Z,8.27
2018-11-29T23:15:47.836Z,8.13
2018-11-29T23:18:16.028Z,8.13
2018-11-29T23:20:44.094Z,8.90
2018-11-29T23:23:12.154Z,9.57
2018-11-29T23:25:40.191Z,8.03
2018-11-29T23:28:08.298Z,9.47
2018-11-29T23:30:36.334Z,6.70
2018-11-29T23:33:04.463Z,8.40
2018-11-29T23:35:32.473Z,7.13
2018-11-29T23:38:00.687Z,7.07
2018-11-29T23:40:28.745Z,7.40
2018-11-29T23:42:56.833Z,8.80
2018-11-29T23:45:24.888Z,6.33
2018-11-29T23:47:53.098Z,7.50
2018-11-29T23:50:21.561Z,7.23
2018-11-29T23:52:49.813Z,8.77
2018-11-29T23:55:20.403Z,9.07
2018-11-29T23:57:48.628Z,7.70
